Time;durP1;ratioP1;P1;durP2;ratioP2;P2;SDS_P1;SDS_P2;PMS_P1;PMS_P2;Temp;Humidity;BMP_temperature;BMP_pressure;BME280_temperature;BME280_humidity;BME280_pressure;Samples;Min_cycle;Max_cycle;Signal;HPM_P1;HPM_P2
2022/10/10 00:02:09;;;;;;;6.47;3.10;;;11.40;99.90;;;;;;5092925;28;20270;-65
2022/10/10 00:04:35;;;;;;;4.67;2.33;;;11.40;99.90;;;;;;5093105;28;20298;-65
2022/10/10 00:07:01;;;;;;;16.10;3.37;;;11.30;99.90;;;;;;5089839;28;20869;-65
2022/10/10 00:09:26;;;;;;;4.93;2.70;;;11.30;99.90;;;;;;5073701;28;20735;-65
2022/10/10 00:11:52;;;;;;;7.67;3.30;;;11.20;99.90;;;;;;5092778;28;20568;-65
2022/10/10 00:14:17;;;;;;;6.43;3.03;;;11.20;99.90;;;;;;5082101;28;20184;-65
2022/10/10 00:16:43;;;;;;;5.23;2.40;;;11.20;99.90;;;;;;5090228;28;20184;-65
2022/10/10 00:19:09;;;;;;;4.93;2.20;;;11.20;99.90;;;;;;5084927;28;20189;-65
2022/10/10 00:21:34;;;;;;;4.20;2.87;;;11.10;99.90;;;;;;5092381;28;20337;-65
2022/10/10 00:24:00;;;;;;;4.90;2.63;;;11.10;99.90;;;;;;5092768;28;20691;-64
2022/10/10 00:26:25;;;;;;;7.87;3.87;;;11.10;99.90;;;;;;5090120;28;20185;-65
2022/10/10 00:28:51;;;;;;;3.70;2.70;;;11.10;99.90;;;;;;5081602;28;20634;-65
2022/10/10 00:31:17;;;;;;;5.57;3.43;;;11.10;99.90;;;;;;5090348;28;20630;-65
2022/10/10 00:33:43;;;;;;;5.27;3.37;;;11.10;99.90;;;;;;5081579;28;20195;-65
2022/10/10 00:36:09;;;;;;;6.47;2.97;;;11.10;99.90;;;;;;5089986;28;20672;-64
2022/10/10 00:38:35;;;;;;;5.03;2.70;;;11.00;99.90;;;;;;5081956;28;20533;-65
2022/10/10 00:41:01;;;;;;;8.10;2.57;;;11.00;99.90;;;;;;5075410;28;20680;-65
2022/10/10 00:43:28;;;;;;;5.70;3.00;;;11.00;99.90;;;;;;5082180;28;20654;-65
2022/10/10 00:45:54;;;;;;;3.40;2.23;;;11.00;99.90;;;;;;5092596;28;20433;-65
2022/10/10 00:48:34;;;;;;;5.97;2.70;;;11.00;99.90;;;;;;5092783;28;20418;-65
2022/10/10 00:51:23;;;;;;;8.23;3.57;;;11.00;99.90;;;;;;5072190;28;20441;-65
2022/10/10 00:53:52;;;;;;;7.17;3.23;;;11.00;99.90;;;;;;5087521;28;20476;-65
2022/10/10 00:56:24;;;;;;;6.27;3.47;;;11.00;99.90;;;;;;5092723;28;20437;-65
2022/10/10 00:58:53;;;;;;;7.07;3.37;;;11.10;99.90;;;;;;5086667;28;20483;-65
2022/10/10 01:01:19;;;;;;;7.40;3.10;;;11.10;99.90;;;;;;5081713;28;20480;-65
2022/10/10 01:03:45;;;;;;;5.70;2.40;;;11.10;99.90;;;;;;5091958;28;20470;-65
2022/10/10 01:06:10;;;;;;;5.00;2.97;;;11.10;99.90;;;;;;5090912;28;20184;-65
2022/10/10 01:08:36;;;;;;;4.67;2.83;;;11.10;99.90;;;;;;5089000;28;20219;-65
2022/10/10 01:11:26;;;;;;;8.20;3.63;;;11.10;99.90;;;;;;5092283;28;20634;-65
2022/10/10 01:14:23;;;;;;;5.60;3.30;;;11.20;99.90;;;;;;5079175;28;20495;-65
2022/10/10 01:17:06;;;;;;;4.43;3.03;;;11.20;99.90;;;;;;5092356;28;20448;-64
2022/10/10 01:20:06;;;;;;;5.00;2.97;;;11.20;99.90;;;;;;5092015;28;20476;-65
2022/10/10 01:22:44;;;;;;;7.80;3.37;;;11.20;99.90;;;;;;5057610;28;20536;-65
2022/10/10 01:25:29;;;;;;;5.37;3.03;;;11.20;99.90;;;;;;5078990;28;20894;-65
2022/10/10 01:28:19;;;;;;;7.70;3.53;;;11.20;99.90;;;;;;5092255;28;20427;-66
2022/10/10 01:30:47;;;;;;;10.30;2.93;;;11.20;99.90;;;;;;5091922;28;20423;-64
2022/10/10 01:33:18;;;;;;;5.27;3.17;;;11.30;99.90;;;;;;5091795;28;20553;-65
2022/10/10 01:35:49;;;;;;;6.80;3.60;;;11.30;99.90;;;;;;5091946;28;20441;-65
2022/10/10 01:38:21;;;;;;;5.77;2.90;;;11.30;99.90;;;;;;5092232;28;20414;-65
2022/10/10 01:40:58;;;;;;;4.90;2.80;;;11.30;99.90;;;;;;5091756;28;20500;-65
2022/10/10 01:43:25;;;;;;;7.70;3.50;;;11.30;99.90;;;;;;5091008;28;20461;-65
2022/10/10 01:45:52;;;;;;;5.80;3.00;;;11.40;99.90;;;;;;5088446;28;20419;-65
2022/10/10 01:48:30;;;;;;;7.40;3.13;;;11.40;99.90;;;;;;5071685;28;20419;-65
2022/10/10 01:51:26;;;;;;;6.63;3.33;;;11.40;99.90;;;;;;5090121;28;20440;-65
2022/10/10 01:54:12;;;;;;;6.50;3.47;;;11.50;99.90;;;;;;5075633;28;20431;-64
2022/10/10 01:56:43;;;;;;;8.63;3.33;;;11.50;99.90;;;;;;5084041;28;20449;-65
2022/10/10 01:59:33;;;;;;;5.63;3.10;;;11.50;99.90;;;;;;5084497;28;20449;-65
2022/10/10 02:02:04;;;;;;;6.30;3.40;;;11.50;99.90;;;;;;5088248;28;20415;-65
2022/10/10 02:04:37;;;;;;;6.37;2.90;;;11.50;99.90;;;;;;5081925;28;20458;-65
2022/10/10 02:07:11;;;;;;;5.13;3.17;;;11.50;99.90;;;;;;5086802;28;20905;-65
2022/10/10 02:09:40;;;;;;;5.67;3.20;;;11.50;99.90;;;;;;5084279;28;20429;-65
2022/10/10 02:12:09;;;;;;;7.10;3.27;;;11.50;99.90;;;;;;5084866;28;20430;-65
2022/10/10 02:14:42;;;;;;;4.47;3.03;;;11.50;99.90;;;;;;5074344;28;20415;-65
2022/10/10 02:17:11;;;;;;;5.87;3.20;;;11.50;99.90;;;;;;5083034;28;20494;-65
2022/10/10 02:19:41;;;;;;;9.40;3.73;;;11.50;99.90;;;;;;5095393;28;20407;-65
2022/10/10 02:22:08;;;;;;;3.73;2.60;;;11.50;99.90;;;;;;5094600;28;20507;-65
2022/10/10 02:24:33;;;;;;;5.87;3.23;;;11.40;99.90;;;;;;5092816;28;21137;-65
2022/10/10 02:27:10;;;;;;;8.33;3.40;;;11.50;99.90;;;;;;5084334;28;20414;-65
2022/10/10 02:29:37;;;;;;;7.53;3.07;;;11.50;99.90;;;;;;5094825;28;20180;-65
2022/10/10 02:32:23;;;;;;;6.20;3.47;;;11.40;99.90;;;;;;5094642;28;20445;-64
2022/10/10 02:34:53;;;;;;;5.47;2.93;;;11.40;99.90;;;;;;5087222;28;20426;-65
2022/10/10 02:37:20;;;;;;;7.90;4.97;;;11.40;99.90;;;;;;5094826;28;20775;-65
2022/10/10 02:39:50;;;;;;;11.23;3.30;;;11.40;99.90;;;;;;5088425;28;20442;-65
2022/10/10 02:42:19;;;;;;;6.30;3.40;;;11.30;99.90;;;;;;5088551;28;20897;-65
2022/10/10 02:44:45;;;;;;;8.53;3.80;;;11.30;99.90;;;;;;5076333;28;20756;-65
2022/10/10 02:47:12;;;;;;;4.87;3.40;;;11.30;99.90;;;;;;5093394;28;20414;-65
2022/10/10 02:49:37;;;;;;;6.00;2.63;;;11.30;99.90;;;;;;5082854;28;20501;-64
2022/10/10 02:52:03;;;;;;;8.10;3.33;;;11.40;99.90;;;;;;5094044;28;20506;-64
2022/10/10 02:54:29;;;;;;;14.00;4.47;;;11.30;99.90;;;;;;5094696;28;20204;-64
2022/10/10 02:56:55;;;;;;;5.77;2.70;;;11.30;99.90;;;;;;5081101;28;20215;-65
2022/10/10 02:59:20;;;;;;;8.43;3.00;;;11.30;99.90;;;;;;5092731;28;20198;-65
2022/10/10 03:01:46;;;;;;;5.30;2.87;;;11.30;99.90;;;;;;5093426;28;20226;-65
2022/10/10 03:04:12;;;;;;;12.80;4.23;;;11.30;99.90;;;;;;5093700;28;20211;-65
2022/10/10 03:06:38;;;;;;;4.80;2.90;;;11.30;99.90;;;;;;5078913;28;20182;-65
2022/10/10 03:09:04;;;;;;;4.77;3.17;;;11.30;99.90;;;;;;5086428;28;20441;-65
2022/10/10 03:11:30;;;;;;;8.30;3.90;;;11.30;99.90;;;;;;5092742;28;20245;-65
2022/10/10 03:13:56;;;;;;;5.03;3.13;;;11.30;99.90;;;;;;5081352;28;20556;-65
2022/10/10 03:16:21;;;;;;;9.07;4.00;;;11.40;99.90;;;;;;5094286;28;20697;-65
2022/10/10 03:18:47;;;;;;;9.03;3.23;;;11.30;99.90;;;;;;5094109;28;20188;-65
2022/10/10 03:21:13;;;;;;;7.07;3.60;;;11.40;99.90;;;;;;5092648;28;20215;-65
2022/10/10 03:23:39;;;;;;;7.37;3.70;;;11.40;99.90;;;;;;5080435;28;20261;-65
2022/10/10 03:26:05;;;;;;;10.97;3.70;;;11.50;99.90;;;;;;5080802;28;20439;-64
2022/10/10 03:28:30;;;;;;;8.57;3.73;;;11.40;99.90;;;;;;5093550;28;20180;-65
2022/10/10 03:30:56;;;;;;;7.83;3.37;;;11.40;99.90;;;;;;5093955;28;20465;-65
2022/10/10 03:33:22;;;;;;;10.07;3.40;;;11.50;99.90;;;;;;5085348;28;20642;-65
2022/10/10 03:35:47;;;;;;;8.00;3.83;;;11.50;99.90;;;;;;5074953;28;20185;-65
2022/10/10 03:38:14;;;;;;;7.67;3.77;;;11.50;99.90;;;;;;5093929;28;20282;-65
2022/10/10 03:40:41;;;;;;;8.33;3.37;;;11.50;99.90;;;;;;5079036;28;20189;-65
2022/10/10 03:43:07;;;;;;;9.93;3.13;;;11.50;99.90;;;;;;5072942;28;20542;-65
2022/10/10 03:45:33;;;;;;;11.00;4.57;;;11.50;99.90;;;;;;5087728;28;20415;-65
2022/10/10 03:47:58;;;;;;;6.40;2.93;;;11.50;99.90;;;;;;5086013;28;20778;-65
2022/10/10 03:50:24;;;;;;;7.63;3.53;;;11.50;99.90;;;;;;5087668;28;20195;-65
2022/10/10 03:52:50;;;;;;;6.10;3.17;;;11.60;99.90;;;;;;5093335;28;20230;-65
2022/10/10 03:55:15;;;;;;;8.70;3.47;;;11.60;99.90;;;;;;5092925;28;20179;-65
2022/10/10 03:57:41;;;;;;;7.17;3.37;;;11.60;99.90;;;;;;5072507;28;20543;-64
2022/10/10 04:00:07;;;;;;;8.60;4.43;;;11.50;99.90;;;;;;5073592;28;20181;-66
2022/10/10 04:02:33;;;;;;;6.13;3.50;;;11.50;99.90;;;;;;5093034;28;20196;-65
2022/10/10 04:04:59;;;;;;;9.13;3.13;;;11.50;99.90;;;;;;5079784;28;20427;-65
2022/10/10 04:07:24;;;;;;;9.23;3.20;;;11.50;99.90;;;;;;5093209;28;20187;-65
2022/10/10 04:09:50;;;;;;;7.20;2.93;;;11.40;99.90;;;;;;5079058;28;20259;-65
2022/10/10 04:12:15;;;;;;;7.67;4.07;;;11.40;99.90;;;;;;5072830;28;20181;-65
2022/10/10 04:14:41;;;;;;;6.10;3.33;;;11.50;99.90;;;;;;5086013;28;20262;-65
2022/10/10 04:17:06;;;;;;;5.93;2.90;;;11.50;99.90;;;;;;5072972;28;20181;-65
2022/10/10 04:19:32;;;;;;;6.50;3.60;;;11.50;99.90;;;;;;5081874;28;20191;-65
2022/10/10 04:21:58;;;;;;;7.13;3.37;;;11.60;99.90;;;;;;5092482;28;20196;-65
2022/10/10 04:24:23;;;;;;;13.80;3.80;;;11.50;99.90;;;;;;5093000;28;20630;-65
2022/10/10 04:26:49;;;;;;;7.67;3.63;;;11.40;99.90;;;;;;5093178;28;20186;-65
2022/10/10 04:29:14;;;;;;;10.03;3.80;;;11.30;99.90;;;;;;5092596;28;20202;-65
2022/10/10 04:31:40;;;;;;;7.23;4.43;;;11.30;99.90;;;;;;5092420;28;20181;-65
2022/10/10 04:34:06;;;;;;;6.87;3.77;;;11.30;99.90;;;;;;5079791;28;20642;-65
2022/10/10 04:36:31;;;;;;;4.77;3.03;;;11.30;99.90;;;;;;5091449;28;20264;-65
2022/10/10 04:38:58;;;;;;;7.20;4.23;;;11.20;99.90;;;;;;5092703;28;20191;-65
2022/10/10 04:41:23;;;;;;;4.23;2.90;;;11.20;99.90;;;;;;5079475;28;20188;-65
2022/10/10 04:43:49;;;;;;;9.23;4.43;;;11.20;99.90;;;;;;5091753;28;20454;-65
2022/10/10 04:46:15;;;;;;;6.77;3.50;;;11.20;99.90;;;;;;5092825;28;20175;-65
2022/10/10 04:48:40;;;;;;;9.10;3.73;;;11.20;99.90;;;;;;5079211;28;20181;-65
2022/10/10 04:51:06;;;;;;;9.37;4.70;;;11.10;99.90;;;;;;5078585;28;20541;-65
2022/10/10 04:53:31;;;;;;;5.47;3.10;;;11.10;99.90;;;;;;5091900;28;20221;-65
2022/10/10 04:55:57;;;;;;;6.90;3.00;;;11.10;99.90;;;;;;5092730;28;20184;-65
2022/10/10 04:58:23;;;;;;;7.63;3.60;;;11.10;99.90;;;;;;5091272;28;20276;-65
2022/10/10 05:00:53;;;;;;;6.63;3.47;;;11.10;99.90;;;;;;5073249;28;20187;-65
2022/10/10 05:03:19;;;;;;;9.40;3.50;;;11.10;99.90;;;;;;5074904;28;20200;-65
2022/10/10 05:05:44;;;;;;;5.30;3.17;;;11.10;99.90;;;;;;5091646;28;20459;-65
2022/10/10 05:08:10;;;;;;;10.47;3.43;;;11.10;99.90;;;;;;5090649;28;20517;-65
2022/10/10 05:10:40;;;;;;;6.47;3.70;;;11.20;99.90;;;;;;5087387;28;20183;-65
2022/10/10 05:13:13;;;;;;;8.73;4.00;;;11.10;99.90;;;;;;5083960;28;20330;-65
2022/10/10 05:15:40;;;;;;;8.10;3.73;;;11.10;99.90;;;;;;5091810;28;20422;-65
2022/10/10 05:18:06;;;;;;;7.73;3.67;;;11.10;99.90;;;;;;5089638;28;20858;-65
2022/10/10 05:20:33;;;;;;;6.60;3.60;;;11.10;99.90;;;;;;5084919;28;20422;-66
2022/10/10 05:22:59;;;;;;;4.83;3.27;;;11.20;99.90;;;;;;5091544;28;20466;-65
2022/10/10 05:25:25;;;;;;;8.43;3.90;;;11.10;99.90;;;;;;5086223;28;20430;-65
2022/10/10 05:27:51;;;;;;;6.40;3.27;;;11.10;99.90;;;;;;5090229;28;20190;-65
2022/10/10 05:30:17;;;;;;;6.10;3.87;;;11.20;99.90;;;;;;5084516;28;20181;-65
2022/10/10 05:32:42;;;;;;;14.30;3.80;;;11.30;99.90;;;;;;5071330;28;20189;-65
2022/10/10 05:35:08;;;;;;;6.27;3.47;;;11.30;99.90;;;;;;5071985;28;20195;-65
2022/10/10 05:37:34;;;;;;;5.73;3.67;;;11.30;99.90;;;;;;5085250;28;20187;-65
2022/10/10 05:40:00;;;;;;;12.60;3.60;;;11.30;99.90;;;;;;5083518;28;20227;-65
2022/10/10 05:42:25;;;;;;;7.37;3.67;;;11.30;99.90;;;;;;5073047;28;20200;-65
2022/10/10 05:44:51;;;;;;;8.03;3.53;;;11.30;99.90;;;;;;5083091;28;20183;-65
2022/10/10 05:47:16;;;;;;;9.03;3.20;;;11.30;99.90;;;;;;5088176;28;20283;-65
2022/10/10 05:49:42;;;;;;;5.73;3.63;;;11.40;99.90;;;;;;5095903;28;20184;-65
2022/10/10 05:52:08;;;;;;;9.50;3.70;;;11.40;99.90;;;;;;5095157;28;20186;-65
2022/10/10 05:54:33;;;;;;;5.33;3.50;;;11.40;99.90;;;;;;5087977;28;20222;-65
2022/10/10 05:56:59;;;;;;;10.40;4.17;;;11.40;99.90;;;;;;5075981;28;20245;-65
2022/10/10 05:59:26;;;;;;;7.67;3.93;;;11.40;99.90;;;;;;5093789;28;20229;-66
2022/10/10 06:01:52;;;;;;;7.00;3.43;;;11.30;99.90;;;;;;5092952;28;20207;-65
2022/10/10 06:04:18;;;;;;;8.40;4.10;;;11.40;99.90;;;;;;5075014;28;20893;-65
2022/10/10 06:06:43;;;;;;;5.97;3.67;;;11.40;99.90;;;;;;5076543;28;20177;-66
2022/10/10 06:09:09;;;;;;;6.10;3.53;;;11.50;99.90;;;;;;5095341;28;20470;-66
2022/10/10 06:11:34;;;;;;;10.60;3.53;;;11.60;99.90;;;;;;5080496;28;20259;-65
2022/10/10 06:14:00;;;;;;;5.87;3.30;;;11.70;99.90;;;;;;5086904;28;20636;-65
2022/10/10 06:16:26;;;;;;;5.73;3.10;;;11.80;99.90;;;;;;5095562;28;20245;-66
2022/10/10 06:18:55;;;;;;;6.17;3.70;;;11.80;99.90;;;;;;5091466;28;20188;-65
2022/10/10 06:21:21;;;;;;;5.90;3.80;;;11.80;99.90;;;;;;5091552;28;20807;-65
2022/10/10 06:23:47;;;;;;;7.10;3.33;;;11.90;99.90;;;;;;5094780;28;20549;-65
2022/10/10 06:26:13;;;;;;;5.30;2.43;;;11.90;99.90;;;;;;5091767;28;20414;-65
2022/10/10 06:28:38;;;;;;;6.87;3.70;;;11.80;99.90;;;;;;5093465;28;20192;-65
2022/10/10 06:31:07;;;;;;;4.70;2.90;;;11.90;99.90;;;;;;5093457;28;20418;-65
2022/10/10 06:33:32;;;;;;;18.30;2.73;;;12.00;99.90;;;;;;5093279;28;20218;-65
2022/10/10 06:35:58;;;;;;;10.83;3.33;;;12.00;99.90;;;;;;5094502;28;20533;-65
2022/10/10 06:38:26;;;;;;;5.63;3.17;;;12.00;99.90;;;;;;5094200;28;20188;-65
2022/10/10 06:40:51;;;;;;;4.47;3.23;;;12.10;99.90;;;;;;5094250;28;20172;-65
2022/10/10 06:43:17;;;;;;;6.10;3.20;;;12.10;99.90;;;;;;5089850;28;20947;-65
2022/10/10 06:45:45;;;;;;;5.40;3.50;;;12.20;99.90;;;;;;5094127;28;20187;-65
2022/10/10 06:48:13;;;;;;;10.37;3.33;;;12.20;99.90;;;;;;5094445;28;20255;-66
2022/10/10 06:50:38;;;;;;;7.00;3.17;;;12.20;99.90;;;;;;5090813;28;20497;-65
2022/10/10 06:53:04;;;;;;;5.03;2.83;;;12.20;99.90;;;;;;5093598;28;20501;-65
2022/10/10 06:55:30;;;;;;;6.10;3.60;;;12.30;99.90;;;;;;5094065;28;20191;-66
2022/10/10 06:57:56;;;;;;;11.10;3.40;;;12.30;99.90;;;;;;5091798;28;20292;-65
2022/10/10 07:00:22;;;;;;;12.70;5.50;;;12.40;99.90;;;;;;5072637;28;20490;-65
2022/10/10 07:02:48;;;;;;;16.73;6.20;;;12.40;99.90;;;;;;5082608;28;21013;-65
2022/10/10 07:05:16;;;;;;;17.07;6.40;;;12.40;99.90;;;;;;5094106;28;20446;-65
2022/10/10 07:07:42;;;;;;;10.57;4.53;;;12.40;99.90;;;;;;5093490;28;20183;-65
2022/10/10 07:10:11;;;;;;;7.40;4.40;;;12.50;99.90;;;;;;5082297;28;20490;-65
2022/10/10 07:12:38;;;;;;;12.97;5.00;;;12.50;99.90;;;;;;5093448;28;20418;-65
2022/10/10 07:15:04;;;;;;;16.27;5.17;;;12.50;99.90;;;;;;5079747;28;20473;-65
2022/10/10 07:17:30;;;;;;;11.90;4.60;;;12.50;99.90;;;;;;5093911;28;20418;-65
2022/10/10 07:19:56;;;;;;;13.57;4.90;;;12.60;99.90;;;;;;5092728;28;20488;-65
2022/10/10 07:22:22;;;;;;;23.60;6.03;;;12.60;99.90;;;;;;5092357;28;20239;-65
2022/10/10 07:24:47;;;;;;;7.33;4.30;;;12.60;99.90;;;;;;5093280;28;20665;-65
2022/10/10 07:27:13;;;;;;;3.90;2.20;;;12.70;99.90;;;;;;5093419;28;20419;-65
2022/10/10 07:29:39;;;;;;;4.40;2.47;;;12.70;99.90;;;;;;5092872;28;20173;-65
2022/10/10 07:32:04;;;;;;;6.70;3.20;;;12.80;99.90;;;;;;5092051;28;20670;-65
2022/10/10 07:34:30;;;;;;;6.87;3.17;;;12.80;99.90;;;;;;5092031;28;20684;-65
2022/10/10 07:36:56;;;;;;;7.97;2.67;;;12.80;99.90;;;;;;5092763;28;20172;-65
2022/10/10 07:39:24;;;;;;;7.07;2.90;;;12.90;99.90;;;;;;5092827;28;20177;-65
2022/10/10 07:41:50;;;;;;;4.13;2.30;;;13.00;99.90;;;;;;5092771;28;20670;-65
2022/10/10 07:44:17;;;;;;;5.67;2.83;;;13.00;99.90;;;;;;5092535;28;20454;-65
2022/10/10 07:46:42;;;;;;;6.17;2.43;;;13.10;99.90;;;;;;5093425;28;20414;-65
2022/10/10 07:49:08;;;;;;;11.30;3.07;;;13.10;99.90;;;;;;5091231;28;20418;-65
2022/10/10 07:51:34;;;;;;;4.13;2.50;;;13.20;99.90;;;;;;5092663;28;20545;-65
2022/10/10 07:53:59;;;;;;;3.97;2.30;;;13.30;99.90;;;;;;5092789;28;20199;-65
2022/10/10 07:56:26;;;;;;;5.73;2.97;;;13.40;99.90;;;;;;5082804;28;20204;-65
2022/10/10 07:58:51;;;;;;;12.40;2.83;;;13.40;99.90;;;;;;5082931;28;20550;-65
2022/10/10 08:01:17;;;;;;;6.27;2.63;;;13.50;99.90;;;;;;5093013;28;20419;-65
2022/10/10 08:03:43;;;;;;;6.93;3.47;;;13.50;99.90;;;;;;5085518;28;20215;-65
2022/10/10 08:06:12;;;;;;;8.17;2.20;;;13.70;99.90;;;;;;5091270;28;20791;-65
2022/10/10 08:08:38;;;;;;;2.50;1.63;;;13.70;99.90;;;;;;5091517;28;20200;-65
2022/10/10 08:11:05;;;;;;;3.60;2.00;;;13.80;99.90;;;;;;5091510;28;20438;-65
2022/10/10 08:13:31;;;;;;;4.10;2.13;;;13.80;99.90;;;;;;5090750;28;20510;-65
2022/10/10 08:15:57;;;;;;;6.60;2.47;;;13.90;99.90;;;;;;5091269;28;20508;-65
2022/10/10 08:18:22;;;;;;;5.20;1.80;;;13.90;99.90;;;;;;5091259;28;20909;-65
2022/10/10 08:21:01;;;;;;;9.47;1.93;;;13.90;99.90;;;;;;5091036;28;20223;-65
2022/10/10 08:23:27;;;;;;;6.27;2.00;;;14.10;99.90;;;;;;5090675;28;20204;-65
2022/10/10 08:25:52;;;;;;;4.80;1.90;;;14.20;99.90;;;;;;5091329;28;20403;-65
2022/10/10 08:28:18;;;;;;;12.50;5.30;;;14.30;99.90;;;;;;5090985;28;20957;-65
2022/10/10 08:30:44;;;;;;;11.73;3.73;;;14.30;99.90;;;;;;5090879;28;20180;-65
2022/10/10 08:33:09;;;;;;;4.60;2.20;;;14.30;99.90;;;;;;5090709;28;20185;-65
2022/10/10 08:35:38;;;;;;;3.80;1.90;;;14.40;99.90;;;;;;5091022;28;20185;-65
2022/10/10 08:38:04;;;;;;;9.50;1.80;;;14.50;99.90;;;;;;5091070;28;20177;-65
2022/10/10 08:40:30;;;;;;;9.53;2.77;;;14.60;99.90;;;;;;5091054;28;20445;-65
2022/10/10 08:43:01;;;;;;;3.73;1.87;;;14.70;99.90;;;;;;5090465;28;20555;-65
2022/10/10 08:45:27;;;;;;;5.00;2.20;;;14.80;99.90;;;;;;5090799;28;20181;-65
2022/10/10 08:47:58;;;;;;;2.97;1.30;;;15.00;99.90;;;;;;5090926;28;20410;-65
2022/10/10 08:50:29;;;;;;;4.77;1.90;;;15.10;99.90;;;;;;5091062;28;20499;-65
2022/10/10 08:53:28;;;;;;;5.13;1.90;;;15.30;99.90;;;;;;5091500;28;20430;-66
2022/10/10 08:55:54;;;;;;;2.50;1.40;;;15.50;99.90;;;;;;5087196;28;20435;-65
2022/10/10 08:58:22;;;;;;;2.97;1.50;;;15.60;99.90;;;;;;5085908;28;20430;-66
2022/10/10 09:00:59;;;;;;;5.40;1.77;;;15.70;99.90;;;;;;5091530;28;20493;-65
2022/10/10 09:03:33;;;;;;;2.80;1.50;;;15.70;99.90;;;;;;5091169;28;20458;-65
2022/10/10 09:06:07;;;;;;;3.33;1.10;;;15.80;99.90;;;;;;5082972;28;20429;-65
2022/10/10 09:08:53;;;;;;;12.20;1.70;;;15.80;99.90;;;;;;5074766;28;20418;-65
2022/10/10 09:11:24;;;;;;;3.40;1.53;;;15.80;99.90;;;;;;5091539;28;20509;-65
2022/10/10 09:14:02;;;;;;;4.00;1.57;;;15.90;99.90;;;;;;5090173;28;20418;-65
2022/10/10 09:16:41;;;;;;;2.97;1.50;;;16.00;99.90;;;;;;5091912;28;20414;-65
2022/10/10 09:19:34;;;;;;;3.60;1.33;;;16.00;99.90;;;;;;5087373;28;20415;-65
2022/10/10 09:22:04;;;;;;;3.30;1.33;;;16.10;99.90;;;;;;5070386;28;20793;-66
2022/10/10 09:24:39;;;;;;;8.50;2.17;;;16.10;99.90;;;;;;5071906;28;20431;-65
2022/10/10 09:27:11;;;;;;;5.90;1.50;;;16.10;99.90;;;;;;5091712;28;20440;-65
2022/10/10 09:29:52;;;;;;;2.67;1.23;;;16.10;99.90;;;;;;5075150;28;20412;-65
2022/10/10 09:32:27;;;;;;;4.30;1.70;;;16.20;99.90;;;;;;5083288;28;20411;-65
2022/10/10 09:34:55;;;;;;;2.57;1.43;;;16.30;99.90;;;;;;5091912;28;20915;-65
2022/10/10 09:37:36;;;;;;;4.13;1.20;;;16.30;99.90;;;;;;5091806;28;20407;-65
2022/10/10 09:40:33;;;;;;;1.67;0.93;;;16.30;99.90;;;;;;5071662;28;20793;-66
2022/10/10 09:43:12;;;;;;;9.10;2.27;;;16.40;99.90;;;;;;5089839;28;20472;-65
2022/10/10 09:45:45;;;;;;;3.93;1.87;;;16.60;99.90;;;;;;5076725;28;20422;-65
2022/10/10 09:48:10;;;;;;;3.87;1.73;;;16.60;99.90;;;;;;5080671;28;20410;-65
2022/10/10 09:50:37;;;;;;;5.10;1.60;;;16.60;99.90;;;;;;5088978;28;20811;-65
2022/10/10 09:53:03;;;;;;;2.90;1.53;;;16.70;99.90;;;;;;5082245;28;20185;-65
2022/10/10 09:55:36;;;;;;;3.73;1.40;;;16.80;99.90;;;;;;5071133;28;20416;-65
2022/10/10 09:58:10;;;;;;;2.70;1.20;;;16.70;99.90;;;;;;5072921;28;20201;-65
2022/10/10 10:00:36;;;;;;;4.10;1.47;;;16.80;99.90;;;;;;5091014;28;20467;-65
2022/10/10 10:03:05;;;;;;;3.60;1.67;;;16.70;99.90;;;;;;5088963;28;20461;-65
2022/10/10 10:05:31;;;;;;;3.53;1.60;;;16.80;99.90;;;;;;5090602;28;20172;-65
2022/10/10 10:07:57;;;;;;;2.80;1.60;;;16.90;99.90;;;;;;5084076;28;20436;-66
2022/10/10 10:10:26;;;;;;;2.83;1.67;;;17.00;99.90;;;;;;5091656;28;20626;-66
2022/10/10 10:12:53;;;;;;;1.93;1.10;;;17.10;99.90;;;;;;5082759;28;20434;-66
2022/10/10 10:15:27;;;;;;;3.10;1.70;;;17.20;99.90;;;;;;5091126;28;20465;-65
2022/10/10 10:18:09;;;;;;;4.40;1.50;;;17.20;99.90;;;;;;5091701;28;20854;-65
2022/10/10 10:20:37;;;;;;;2.93;1.23;;;17.20;99.90;;;;;;5088883;28;20921;-65
2022/10/10 10:23:03;;;;;;;5.20;2.40;;;17.20;99.90;;;;;;5076875;28;20834;-65
2022/10/10 10:25:36;;;;;;;3.50;1.53;;;17.20;99.90;;;;;;5091319;28;20414;-66
2022/10/10 10:28:11;;;;;;;5.90;1.77;;;17.20;99.90;;;;;;5091166;28;20225;-67
2022/10/10 10:30:38;;;;;;;3.43;1.30;;;17.20;99.90;;;;;;5091209;28;20442;-65
2022/10/10 10:33:03;;;;;;;2.90;1.50;;;17.20;99.90;;;;;;5086916;28;20506;-65
2022/10/10 10:35:42;;;;;;;5.40;1.90;;;17.30;99.90;;;;;;5074282;28;20509;-66
2022/10/10 10:38:27;;;;;;;3.50;1.30;;;17.40;99.90;;;;;;5085179;28;20703;-65
2022/10/10 10:41:07;;;;;;;2.97;1.37;;;17.40;99.90;;;;;;5095023;28;20418;-65
2022/10/10 10:43:44;;;;;;;5.30;2.00;;;17.40;99.90;;;;;;5083836;28;20538;-65
2022/10/10 10:46:28;;;;;;;5.43;1.77;;;17.50;99.90;;;;;;5089760;28;20411;-65
2022/10/10 10:49:25;;;;;;;5.20;2.37;;;17.50;99.90;;;;;;5084683;28;20457;-65
2022/10/10 10:52:35;;;;;;;4.90;1.77;;;17.30;99.90;;;;;;5081953;28;20461;-66
2022/10/10 10:55:42;;;;;;;6.83;1.90;;;17.20;99.90;;;;;;5048625;28;20482;-65
2022/10/10 10:58:55;;;;;;;6.23;1.60;;;17.10;99.90;;;;;;5069819;28;20438;-65
2022/10/10 11:01:33;;;;;;;7.13;1.77;;;17.10;99.90;;;;;;5060549;28;20435;-65
2022/10/10 11:04:25;;;;;;;3.90;1.60;;;17.10;99.90;;;;;;5082957;28;20489;-65
2022/10/10 11:06:51;;;;;;;5.60;2.40;;;17.00;99.90;;;;;;5094250;28;20418;-65
2022/10/10 11:09:22;;;;;;;10.23;2.53;;;17.10;99.90;;;;;;5090462;28;20425;-65
2022/10/10 11:12:02;;;;;;;5.30;2.40;;;17.40;99.90;;;;;;5093430;28;20330;-66
2022/10/10 11:14:46;;;;;;;4.70;1.93;;;17.90;99.90;;;;;;5080958;28;20904;-65
2022/10/10 11:17:27;;;;;;;13.20;2.00;;;18.20;99.90;;;;;;5074270;28;20518;-64
2022/10/10 11:19:59;;;;;;;6.77;2.57;;;18.50;99.90;;;;;;5081988;28;20922;-64
2022/10/10 11:22:30;;;;;;;3.70;1.63;;;18.70;99.90;;;;;;5079757;28;20548;-65
2022/10/10 11:25:28;;;;;;;8.20;1.87;;;18.90;99.90;;;;;;5094290;28;20489;-65
2022/10/10 11:28:02;;;;;;;6.90;2.03;;;19.20;99.90;;;;;;5093607;28;20430;-65
2022/10/10 11:30:33;;;;;;;5.10;1.80;;;19.40;99.90;;;;;;5093392;28;20829;-65
2022/10/10 11:33:04;;;;;;;6.00;2.50;;;19.40;99.90;;;;;;5093511;28;20418;-65
2022/10/10 11:35:40;;;;;;;8.07;2.47;;;19.50;99.90;;;;;;5086222;28;20439;-69
2022/10/10 11:38:11;;;;;;;7.63;1.67;;;19.70;99.90;;;;;;5080452;28;20419;-69
2022/10/10 11:40:55;;;;;;;3.37;1.90;;;20.00;99.90;;;;;;5093860;28;20430;-69
2022/10/10 11:43:41;;;;;;;9.73;1.90;;;20.20;99.90;;;;;;5086328;28;20474;-69
2022/10/10 11:46:38;;;;;;;5.13;1.70;;;20.30;99.90;;;;;;5028738;28;20420;-69
2022/10/10 11:49:12;;;;;;;8.03;2.07;;;20.40;99.90;;;;;;5093685;28;20472;-69
2022/10/10 11:51:56;;;;;;;5.30;1.80;;;20.60;99.90;;;;;;5072334;28;20410;-69
2022/10/10 11:54:56;;;;;;;6.60;2.03;;;20.80;98.90;;;;;;5075609;28;20432;-68
2022/10/10 11:57:34;;;;;;;7.55;1.80;;;20.70;99.30;;;;;;5092575;28;20412;-68
2022/10/10 12:00:09;;;;;;;6.07;2.60;;;20.70;99.30;;;;;;5082666;28;20258;-69
2022/10/10 12:02:39;;;;;;;7.13;2.50;;;20.70;99.00;;;;;;5090166;28;20465;-69
2022/10/10 12:05:06;;;;;;;4.87;2.20;;;20.90;98.80;;;;;;5073465;28;20430;-69
2022/10/10 12:07:42;;;;;;;5.10;2.60;;;20.90;98.50;;;;;;5080468;28;20924;-69
2022/10/10 12:10:09;;;;;;;5.13;1.93;;;21.00;98.70;;;;;;5091999;28;20488;-69
2022/10/10 12:12:42;;;;;;;4.70;1.63;;;21.10;98.60;;;;;;5084642;28;20855;-69
2022/10/10 12:15:09;;;;;;;2.93;1.30;;;21.10;98.50;;;;;;5088262;28;20469;-69
2022/10/10 12:17:44;;;;;;;6.87;2.23;;;21.00;98.90;;;;;;5091812;28;20907;-69
2022/10/10 12:20:30;;;;;;;6.07;1.87;;;21.10;98.00;;;;;;5084873;28;20444;-69
2022/10/10 12:23:08;;;;;;;10.90;2.10;;;21.10;98.50;;;;;;5090538;28;20822;-69
2022/10/10 12:25:36;;;;;;;5.47;1.83;;;21.20;98.50;;;;;;5084644;28;20438;-69
2022/10/10 12:28:23;;;;;;;5.50;2.00;;;21.20;99.00;;;;;;5071741;28;20411;-69
2022/10/10 12:30:55;;;;;;;5.73;2.00;;;21.40;99.50;;;;;;5091491;28;20406;-69
2022/10/10 12:33:42;;;;;;;3.10;1.47;;;21.50;97.90;;;;;;5086813;28;20465;-69
2022/10/10 12:36:19;;;;;;;11.70;2.30;;;21.40;97.80;;;;;;5084987;28;20422;-69
2022/10/10 12:39:00;;;;;;;4.33;1.87;;;21.00;98.30;;;;;;5091177;28;20760;-69
2022/10/10 12:41:41;;;;;;;4.90;2.03;;;20.50;98.60;;;;;;5091132;28;20425;-69
2022/10/10 12:44:31;;;;;;;5.93;1.80;;;20.20;98.70;;;;;;5090968;28;20473;-69
2022/10/10 12:47:15;;;;;;;10.07;2.37;;;20.00;99.40;;;;;;5069924;28;20415;-68
2022/10/10 12:49:54;;;;;;;13.37;2.20;;;20.00;99.50;;;;;;5079103;28;20415;-68
2022/10/10 12:52:40;;;;;;;5.80;2.27;;;20.30;99.90;;;;;;5070549;28;20849;-69
2022/10/10 12:55:18;;;;;;;3.80;1.80;;;20.50;98.50;;;;;;5079581;28;20944;-69
2022/10/10 12:57:47;;;;;;;5.20;2.00;;;20.50;97.70;;;;;;5089453;28;20418;-69
2022/10/10 13:00:23;;;;;;;15.83;2.30;;;20.60;96.70;;;;;;5082128;28;20418;-69
2022/10/10 13:02:57;;;;;;;19.00;2.10;;;20.70;97.90;;;;;;5090455;28;20492;-69
2022/10/10 13:05:30;;;;;;;6.10;1.70;;;20.90;97.20;;;;;;5089495;28;20453;-69